RYR57ND EPMO-EGSS
Flight info
| Callsign | RYR57ND |
|---|---|
| Flight time | 1h 58m |
| Altitude | 38000 |
| Route | OLILA DCT MEBIV DCT RILAB L621 SOMOR DCT TADAK L29 ALUKA DCT GARLU DCT NOGRO M40 RINIS |
| Aircraft | B738/M-SDFGIJ1LRWYZ/SB1 |
Departure
| Time | 2026-04-23 13:22 |
|---|---|
| Airport | Warsaw Modlin Airport (EPMO) |
Arrival
| Time | 2026-04-23 15:20 |
|---|---|
| Airport | London Stansted Airport (EGSS) |
| Time | Latitude | Longitude | Altitude | Speed | Heading |
|---|---|---|---|---|---|
| 2026-04-23 12:56 | 52.44752 | 20.65337 | 338 ft | 0 kts | 207° |
| 2026-04-23 13:14 | 52.44763 | 20.65346 | 337 ft | 2 kts | 206° |
| 2026-04-23 13:14 | 52.44776 | 20.65357 | 337 ft | 2 kts | 207° |
| 2026-04-23 13:14 | 52.44788 | 20.65365 | 337 ft | 1 kts | 169° |
| 2026-04-23 13:14 | 52.44799 | 20.65353 | 337 ft | 1 kts | 112° |
| 2026-04-23 13:15 | 52.44799 | 20.65330 | 337 ft | 2 kts | 71° |
| 2026-04-23 13:15 | 52.44796 | 20.65307 | 337 ft | 2 kts | 84° |
| 2026-04-23 13:15 | 52.44794 | 20.65294 | 337 ft | 0 kts | 81° |
| 2026-04-23 13:17 | 52.44795 | 20.65298 | 337 ft | 2 kts | 81° |
| 2026-04-23 13:18 | 52.44803 | 20.65384 | 337 ft | 11 kts | 81° |
| 2026-04-23 13:18 | 52.44815 | 20.65508 | 336 ft | 10 kts | 81° |
| 2026-04-23 13:18 | 52.44824 | 20.65613 | 338 ft | 8 kts | 82° |
| 2026-04-23 13:18 | 52.44832 | 20.65706 | 339 ft | 10 kts | 83° |
| 2026-04-23 13:19 | 52.44848 | 20.65879 | 339 ft | 20 kts | 82° |
| 2026-04-23 13:19 | 52.44871 | 20.66114 | 338 ft | 20 kts | 81° |
| 2026-04-23 13:19 | 52.44894 | 20.66352 | 338 ft | 20 kts | 82° |
| 2026-04-23 13:19 | 52.44915 | 20.66587 | 338 ft | 20 kts | 83° |
| 2026-04-23 13:20 | 52.44937 | 20.66821 | 337 ft | 20 kts | 81° |
| 2026-04-23 13:20 | 52.44962 | 20.67028 | 337 ft | 15 kts | 60° |
| 2026-04-23 13:20 | 52.45062 | 20.67062 | 335 ft | 16 kts | 352° |
| 2026-04-23 13:20 | 52.45181 | 20.67030 | 332 ft | 17 kts | 345° |
| 2026-04-23 13:21 | 52.45271 | 20.66989 | 331 ft | 10 kts | 338° |
| 2026-04-23 13:21 | 52.45281 | 20.66866 | 330 ft | 16 kts | 263° |
| 2026-04-23 13:21 | 52.45255 | 20.66560 | 331 ft | 51 kts | 261° |
| 2026-04-23 13:21 | 52.45164 | 20.65624 | 333 ft | 114 kts | 262° |
| 2026-04-23 13:22 | 52.45008 | 20.64052 | 347 ft | 161 kts | 264° |
| 2026-04-23 13:22 | 52.44841 | 20.62305 | 1083 ft | 149 kts | 270° |
| 2026-04-23 13:22 | 52.44711 | 20.60646 | 1676 ft | 154 kts | 271° |
| 2026-04-23 13:22 | 52.44553 | 20.58888 | 2170 ft | 161 kts | 270° |
| 2026-04-23 13:23 | 52.44339 | 20.57051 | 2583 ft | 174 kts | 269° |
| 2026-04-23 13:23 | 52.44348 | 20.55003 | 2816 ft | 184 kts | 298° |
| 2026-04-23 13:23 | 52.45113 | 20.53392 | 3353 ft | 182 kts | 328° |
| 2026-04-23 13:23 | 52.46233 | 20.52473 | 3919 ft | 186 kts | 343° |
| 2026-04-23 13:24 | 52.47551 | 20.52143 | 4417 ft | 198 kts | 357° |
| 2026-04-23 13:24 | 52.48930 | 20.52099 | 4933 ft | 208 kts | 358° |
| 2026-04-23 13:24 | 52.50435 | 20.52016 | 5422 ft | 220 kts | 356° |
| 2026-04-23 13:24 | 52.52003 | 20.51880 | 5854 ft | 235 kts | 355° |
| 2026-04-23 13:25 | 52.53577 | 20.51067 | 6424 ft | 245 kts | 327° |
| 2026-04-23 13:25 | 52.54657 | 20.48868 | 7118 ft | 258 kts | 300° |
| 2026-04-23 13:25 | 52.55253 | 20.46100 | 7869 ft | 264 kts | 293° |
| 2026-04-23 13:25 | 52.55777 | 20.43167 | 8580 ft | 268 kts | 294° |
| 2026-04-23 13:26 | 52.56354 | 20.40231 | 9285 ft | 272 kts | 296° |
| 2026-04-23 13:26 | 52.56979 | 20.37328 | 10042 ft | 274 kts | 297° |
| 2026-04-23 13:26 | 52.57650 | 20.34339 | 10669 ft | 283 kts | 296° |
| 2026-04-23 13:26 | 52.58345 | 20.31274 | 11249 ft | 293 kts | 296° |
| 2026-04-23 13:27 | 52.59054 | 20.28110 | 11994 ft | 297 kts | 296° |
| 2026-04-23 13:27 | 52.59759 | 20.24929 | 12751 ft | 301 kts | 296° |
| 2026-04-23 13:27 | 52.60477 | 20.21682 | 13577 ft | 302 kts | 297° |
| 2026-04-23 13:27 | 52.61192 | 20.18446 | 14297 ft | 306 kts | 297° |
| 2026-04-23 13:28 | 52.61920 | 20.15153 | 15065 ft | 309 kts | 297° |
| 2026-04-23 13:28 | 52.62651 | 20.11847 | 15775 ft | 314 kts | 297° |
| 2026-04-23 13:28 | 52.63395 | 20.08476 | 16477 ft | 317 kts | 297° |
| 2026-04-23 13:28 | 52.64155 | 20.05027 | 17133 ft | 323 kts | 297° |
| 2026-04-23 13:29 | 52.64910 | 20.01591 | 17806 ft | 326 kts | 297° |
| 2026-04-23 13:29 | 52.65673 | 19.98104 | 18515 ft | 328 kts | 297° |
| 2026-04-23 13:29 | 52.66457 | 19.94519 | 19132 ft | 332 kts | 297° |
| 2026-04-23 13:29 | 52.67246 | 19.90909 | 19740 ft | 337 kts | 297° |
| 2026-04-23 13:30 | 52.68033 | 19.87305 | 20383 ft | 340 kts | 298° |
| 2026-04-23 13:30 | 52.68838 | 19.83615 | 20945 ft | 344 kts | 298° |
| 2026-04-23 13:30 | 52.69637 | 19.79946 | 21549 ft | 347 kts | 298° |
| 2026-04-23 13:30 | 52.70456 | 19.76181 | 22062 ft | 352 kts | 298° |
| 2026-04-23 13:31 | 52.71283 | 19.72368 | 22694 ft | 353 kts | 298° |
| 2026-04-23 13:31 | 52.72098 | 19.68586 | 23190 ft | 358 kts | 299° |
| 2026-04-23 13:31 | 52.72938 | 19.64699 | 23765 ft | 360 kts | 299° |
| 2026-04-23 13:31 | 52.73779 | 19.60798 | 24264 ft | 364 kts | 299° |
| 2026-04-23 13:32 | 52.74614 | 19.56913 | 24738 ft | 367 kts | 299° |
| 2026-04-23 13:32 | 52.75465 | 19.52945 | 25314 ft | 368 kts | 300° |
| 2026-04-23 13:32 | 52.76325 | 19.48926 | 25794 ft | 372 kts | 300° |
| 2026-04-23 13:32 | 52.77188 | 19.44893 | 26258 ft | 375 kts | 300° |
| 2026-04-23 13:33 | 52.78047 | 19.40860 | 26765 ft | 377 kts | 300° |
| 2026-04-23 13:33 | 52.78923 | 19.36747 | 27203 ft | 380 kts | 300° |
| 2026-04-23 13:33 | 52.79793 | 19.32660 | 27587 ft | 384 kts | 299° |
| 2026-04-23 13:33 | 52.80685 | 19.28459 | 28004 ft | 388 kts | 299° |
| 2026-04-23 13:34 | 52.81570 | 19.24273 | 28464 ft | 390 kts | 299° |
| 2026-04-23 13:34 | 52.82452 | 19.20088 | 28928 ft | 391 kts | 299° |
| 2026-04-23 13:34 | 52.83358 | 19.15803 | 29132 ft | 399 kts | 299° |
| 2026-04-23 13:34 | 52.84259 | 19.11524 | 29644 ft | 398 kts | 299° |
| 2026-04-23 13:35 | 52.85160 | 19.07207 | 30209 ft | 396 kts | 300° |
| 2026-04-23 13:35 | 52.86075 | 19.02823 | 30516 ft | 400 kts | 299° |
| 2026-04-23 13:35 | 52.86990 | 18.98452 | 30861 ft | 403 kts | 300° |
| 2026-04-23 13:35 | 52.87906 | 18.94058 | 31209 ft | 405 kts | 299° |
| 2026-04-23 13:36 | 52.88842 | 18.89573 | 31467 ft | 410 kts | 299° |
| 2026-04-23 13:36 | 52.89801 | 18.84949 | 31919 ft | 410 kts | 299° |
| 2026-04-23 13:36 | 52.90738 | 18.80413 | 32299 ft | 411 kts | 300° |
| 2026-04-23 13:36 | 52.91666 | 18.75919 | 32561 ft | 414 kts | 299° |
| 2026-04-23 13:37 | 52.92614 | 18.71331 | 32784 ft | 419 kts | 299° |
| 2026-04-23 13:37 | 52.93574 | 18.66663 | 33175 ft | 420 kts | 300° |
| 2026-04-23 13:37 | 52.94517 | 18.62056 | 33544 ft | 420 kts | 299° |
| 2026-04-23 13:37 | 52.95451 | 18.57489 | 33803 ft | 423 kts | 300° |
| 2026-04-23 13:38 | 52.96415 | 18.52772 | 34105 ft | 425 kts | 300° |
| 2026-04-23 13:38 | 52.97356 | 18.48152 | 34312 ft | 429 kts | 300° |
| 2026-04-23 13:38 | 52.98315 | 18.43426 | 34674 ft | 429 kts | 299° |
| 2026-04-23 13:38 | 52.99276 | 18.38691 | 34821 ft | 433 kts | 299° |
| 2026-04-23 13:39 | 53.00242 | 18.33909 | 35360 ft | 431 kts | 298° |
| 2026-04-23 13:39 | 53.01203 | 18.29139 | 35531 ft | 436 kts | 298° |
| 2026-04-23 13:39 | 53.02176 | 18.24306 | 35876 ft | 436 kts | 298° |
| 2026-04-23 13:39 | 53.03132 | 18.19520 | 36420 ft | 431 kts | 298° |
| 2026-04-23 13:40 | 53.04071 | 18.14803 | 36859 ft | 429 kts | 297° |
| 2026-04-23 13:40 | 53.05018 | 18.10040 | 37221 ft | 427 kts | 298° |
| 2026-04-23 13:40 | 53.05957 | 18.05323 | 37501 ft | 428 kts | 297° |
| 2026-04-23 13:40 | 53.06885 | 18.00658 | 37749 ft | 428 kts | 297° |
| 2026-04-23 13:41 | 53.07825 | 17.95934 | 37952 ft | 429 kts | 297° |
| 2026-04-23 13:41 | 53.08771 | 17.91161 | 38079 ft | 431 kts | 297° |
| 2026-04-23 13:41 | 53.09702 | 17.86459 | 38078 ft | 432 kts | 297° |
| 2026-04-23 13:42 | 53.11559 | 17.77000 | 38077 ft | 428 kts | 297° |
| 2026-04-23 13:42 | 53.13392 | 17.67620 | 38081 ft | 429 kts | 297° |
| 2026-04-23 13:43 | 53.15227 | 17.58181 | 38076 ft | 428 kts | 297° |
| 2026-04-23 13:43 | 53.16356 | 17.48280 | 38078 ft | 448 kts | 281° |
| 2026-04-23 13:44 | 53.16138 | 17.37821 | 38076 ft | 455 kts | 274° |
| 2026-04-23 13:44 | 53.15625 | 17.27287 | 38078 ft | 456 kts | 274° |
| 2026-04-23 13:45 | 53.15169 | 17.16785 | 38078 ft | 454 kts | 274° |
| 2026-04-23 13:45 | 53.14796 | 17.06299 | 38075 ft | 453 kts | 275° |
| 2026-04-23 13:46 | 53.14468 | 16.95847 | 38084 ft | 454 kts | 275° |
| 2026-04-23 13:46 | 53.14152 | 16.85373 | 38083 ft | 455 kts | 275° |
| 2026-04-23 13:47 | 53.13829 | 16.74880 | 38094 ft | 453 kts | 275° |
| 2026-04-23 13:47 | 53.13502 | 16.64466 | 38087 ft | 454 kts | 275° |
| 2026-04-23 13:48 | 53.13166 | 16.54018 | 38096 ft | 453 kts | 275° |
| 2026-04-23 13:48 | 53.12821 | 16.43618 | 38096 ft | 452 kts | 275° |
| 2026-04-23 13:49 | 53.12467 | 16.33153 | 38103 ft | 454 kts | 274° |
| 2026-04-23 13:49 | 53.12102 | 16.22682 | 38111 ft | 455 kts | 274° |
| 2026-04-23 13:50 | 53.11728 | 16.12241 | 38113 ft | 453 kts | 274° |
| 2026-04-23 13:50 | 53.11344 | 16.01851 | 38113 ft | 454 kts | 274° |
| 2026-04-23 13:51 | 53.10952 | 15.91418 | 38120 ft | 453 kts | 274° |
| 2026-04-23 13:51 | 53.10553 | 15.80976 | 38123 ft | 454 kts | 274° |
| 2026-04-23 13:52 | 53.10141 | 15.70513 | 38132 ft | 455 kts | 274° |
| 2026-04-23 13:52 | 53.09722 | 15.60112 | 38127 ft | 454 kts | 274° |
| 2026-04-23 13:53 | 53.09290 | 15.49640 | 38138 ft | 454 kts | 274° |
| 2026-04-23 13:53 | 53.08854 | 15.39244 | 38136 ft | 454 kts | 274° |
| 2026-04-23 13:54 | 53.08405 | 15.28786 | 38148 ft | 454 kts | 272° |
| 2026-04-23 13:54 | 53.07949 | 15.18306 | 38145 ft | 455 kts | 272° |
| 2026-04-23 13:55 | 53.07482 | 15.07856 | 38152 ft | 455 kts | 272° |
| 2026-04-23 13:55 | 53.07010 | 14.97463 | 38153 ft | 455 kts | 272° |
| 2026-04-23 13:56 | 53.06524 | 14.86985 | 38155 ft | 456 kts | 272° |
| 2026-04-23 13:56 | 53.06028 | 14.76489 | 38159 ft | 457 kts | 272° |
| 2026-04-23 13:57 | 53.05521 | 14.66049 | 38157 ft | 455 kts | 272° |
| 2026-04-23 13:57 | 53.05006 | 14.55567 | 38163 ft | 456 kts | 272° |
| 2026-04-23 13:58 | 53.04485 | 14.45089 | 38162 ft | 457 kts | 272° |
| 2026-04-23 13:58 | 53.03954 | 14.34628 | 38167 ft | 457 kts | 271° |
| 2026-04-23 13:59 | 53.03408 | 14.24096 | 38164 ft | 457 kts | 270° |
| 2026-04-23 13:59 | 53.02855 | 14.13611 | 38167 ft | 458 kts | 270° |
| 2026-04-23 14:00 | 53.02384 | 14.04828 | 38168 ft | 456 kts | 270° |
| 2026-04-23 14:00 | 53.01721 | 13.92633 | 38173 ft | 457 kts | 270° |
| 2026-04-23 14:01 | 53.01140 | 13.82100 | 38174 ft | 459 kts | 270° |
| 2026-04-23 14:01 | 53.00547 | 13.71586 | 38173 ft | 458 kts | 270° |
| 2026-04-23 14:02 | 52.99947 | 13.61107 | 38174 ft | 458 kts | 270° |
| 2026-04-23 14:02 | 52.99338 | 13.50621 | 38172 ft | 458 kts | 270° |
| 2026-04-23 14:03 | 52.98716 | 13.40068 | 38174 ft | 459 kts | 270° |
| 2026-04-23 14:03 | 52.98092 | 13.29637 | 38173 ft | 459 kts | 269° |
| 2026-04-23 14:04 | 52.97453 | 13.19121 | 38174 ft | 459 kts | 268° |
| 2026-04-23 14:04 | 52.96807 | 13.08640 | 38177 ft | 459 kts | 268° |
| 2026-04-23 14:05 | 52.96147 | 12.98096 | 38177 ft | 459 kts | 268° |
| 2026-04-23 14:05 | 52.95480 | 12.87581 | 38175 ft | 459 kts | 268° |
| 2026-04-23 14:06 | 52.94809 | 12.77139 | 38183 ft | 461 kts | 268° |
| 2026-04-23 14:06 | 52.94122 | 12.66582 | 38181 ft | 460 kts | 268° |
| 2026-04-23 14:07 | 52.93427 | 12.56084 | 38193 ft | 460 kts | 268° |
| 2026-04-23 14:07 | 52.92356 | 12.40190 | 38191 ft | 460 kts | 268° |
| 2026-04-23 14:08 | 52.91633 | 12.29631 | 38197 ft | 459 kts | 267° |
| 2026-04-23 14:08 | 52.90905 | 12.19123 | 38209 ft | 462 kts | 266° |
| 2026-04-23 14:09 | 52.90162 | 12.08557 | 38208 ft | 462 kts | 266° |
| 2026-04-23 14:09 | 52.89407 | 11.97960 | 38207 ft | 460 kts | 266° |
| 2026-04-23 14:10 | 52.88636 | 11.87266 | 38204 ft | 460 kts | 266° |
| 2026-04-23 14:10 | 52.87865 | 11.76692 | 38207 ft | 461 kts | 266° |
| 2026-04-23 14:11 | 52.87090 | 11.66206 | 38212 ft | 460 kts | 266° |
| 2026-04-23 14:11 | 52.86309 | 11.55766 | 38217 ft | 461 kts | 266° |
| 2026-04-23 14:12 | 52.85513 | 11.45256 | 38215 ft | 460 kts | 266° |
| 2026-04-23 14:12 | 52.84707 | 11.34743 | 38224 ft | 460 kts | 265° |
| 2026-04-23 14:13 | 52.83894 | 11.24254 | 38234 ft | 460 kts | 265° |
| 2026-04-23 14:13 | 52.83070 | 11.13754 | 38235 ft | 460 kts | 265° |
| 2026-04-23 14:14 | 52.82265 | 11.03341 | 38240 ft | 459 kts | 265° |
| 2026-04-23 14:14 | 52.81487 | 10.92867 | 38241 ft | 460 kts | 265° |
| 2026-04-23 14:15 | 52.80754 | 10.83033 | 38240 ft | 460 kts | 265° |
| 2026-04-23 14:15 | 52.79962 | 10.72574 | 38238 ft | 460 kts | 265° |
| 2026-04-23 14:16 | 52.79151 | 10.62038 | 38240 ft | 460 kts | 265° |
| 2026-04-23 14:16 | 52.78334 | 10.51577 | 38247 ft | 460 kts | 265° |
| 2026-04-23 14:17 | 52.77508 | 10.41129 | 38259 ft | 460 kts | 265° |
| 2026-04-23 14:17 | 52.76664 | 10.30584 | 38267 ft | 461 kts | 264° |
| 2026-04-23 14:18 | 52.75800 | 10.19909 | 38266 ft | 461 kts | 264° |
| 2026-04-23 14:18 | 52.74923 | 10.09212 | 38269 ft | 460 kts | 264° |
| 2026-04-23 14:19 | 52.74376 | 10.02584 | 38272 ft | 460 kts | 264° |
| 2026-04-23 14:19 | 52.73521 | 9.92338 | 38277 ft | 460 kts | 263° |
| 2026-04-23 14:20 | 52.72637 | 9.81856 | 38284 ft | 460 kts | 263° |
| 2026-04-23 14:20 | 52.71749 | 9.71433 | 38286 ft | 459 kts | 263° |
| 2026-04-23 14:21 | 52.70855 | 9.61046 | 38290 ft | 460 kts | 263° |
| 2026-04-23 14:21 | 52.69951 | 9.50655 | 38289 ft | 460 kts | 263° |
| 2026-04-23 14:22 | 52.69038 | 9.40279 | 38294 ft | 460 kts | 263° |
| 2026-04-23 14:22 | 52.68111 | 9.29841 | 38292 ft | 460 kts | 262° |
| 2026-04-23 14:23 | 52.67176 | 9.19427 | 38294 ft | 458 kts | 262° |
| 2026-04-23 14:23 | 52.66238 | 9.09084 | 38304 ft | 459 kts | 262° |
| 2026-04-23 14:24 | 52.65284 | 8.98669 | 38315 ft | 459 kts | 262° |
| 2026-04-23 14:24 | 52.64328 | 8.88336 | 38321 ft | 459 kts | 262° |
| 2026-04-23 14:25 | 52.63360 | 8.77977 | 38325 ft | 460 kts | 262° |
| 2026-04-23 14:25 | 52.62387 | 8.67666 | 38325 ft | 460 kts | 262° |
| 2026-04-23 14:26 | 52.61398 | 8.57287 | 38331 ft | 459 kts | 261° |
| 2026-04-23 14:26 | 52.60407 | 8.46984 | 38331 ft | 460 kts | 261° |
| 2026-04-23 14:27 | 52.59403 | 8.36641 | 38333 ft | 459 kts | 261° |
| 2026-04-23 14:27 | 52.58391 | 8.26318 | 38334 ft | 459 kts | 260° |
| 2026-04-23 14:28 | 52.57373 | 8.16021 | 38336 ft | 460 kts | 260° |
| 2026-04-23 14:28 | 52.56342 | 8.05686 | 38340 ft | 459 kts | 260° |
| 2026-04-23 14:29 | 52.55302 | 7.95363 | 38336 ft | 459 kts | 260° |
| 2026-04-23 14:29 | 52.54258 | 7.85094 | 38343 ft | 459 kts | 260° |
| 2026-04-23 14:30 | 52.53198 | 7.74759 | 38342 ft | 459 kts | 260° |
| 2026-04-23 14:30 | 52.52140 | 7.64539 | 38348 ft | 459 kts | 259° |
| 2026-04-23 14:31 | 52.51067 | 7.54251 | 38352 ft | 457 kts | 259° |
| 2026-04-23 14:31 | 52.49982 | 7.43952 | 38352 ft | 457 kts | 259° |
| 2026-04-23 14:32 | 52.48891 | 7.33684 | 38346 ft | 457 kts | 258° |
| 2026-04-23 14:32 | 52.47789 | 7.23405 | 38355 ft | 457 kts | 258° |
| 2026-04-23 14:33 | 52.46686 | 7.13201 | 38361 ft | 456 kts | 258° |
| 2026-04-23 14:33 | 52.45578 | 7.03033 | 38369 ft | 456 kts | 258° |
| 2026-04-23 14:34 | 52.44453 | 6.92800 | 38371 ft | 455 kts | 258° |
| 2026-04-23 14:34 | 52.43323 | 6.82606 | 38360 ft | 456 kts | 258° |
| 2026-04-23 14:35 | 52.42185 | 6.72418 | 38360 ft | 456 kts | 258° |
| 2026-04-23 14:35 | 52.41035 | 6.62213 | 38361 ft | 455 kts | 257° |
| 2026-04-23 14:36 | 52.39887 | 6.52100 | 38360 ft | 455 kts | 257° |
| 2026-04-23 14:36 | 52.38723 | 6.41941 | 38358 ft | 455 kts | 257° |
| 2026-04-23 14:37 | 52.37550 | 6.31778 | 38360 ft | 455 kts | 257° |
| 2026-04-23 14:37 | 52.36357 | 6.21533 | 38363 ft | 455 kts | 256° |
| 2026-04-23 14:38 | 52.35165 | 6.11370 | 38369 ft | 455 kts | 256° |
| 2026-04-23 14:38 | 52.33973 | 6.01280 | 38372 ft | 454 kts | 256° |
| 2026-04-23 14:39 | 52.32769 | 5.91167 | 38382 ft | 454 kts | 256° |
| 2026-04-23 14:39 | 52.31551 | 5.81026 | 38377 ft | 455 kts | 256° |
| 2026-04-23 14:40 | 52.30335 | 5.70978 | 38383 ft | 454 kts | 256° |
| 2026-04-23 14:40 | 52.29091 | 5.60773 | 38390 ft | 454 kts | 256° |
| 2026-04-23 14:41 | 52.27859 | 5.50743 | 38387 ft | 454 kts | 256° |
| 2026-04-23 14:41 | 52.26611 | 5.40661 | 38386 ft | 454 kts | 256° |
| 2026-04-23 14:42 | 52.25362 | 5.30634 | 38390 ft | 453 kts | 255° |
| 2026-04-23 14:42 | 52.24102 | 5.20597 | 38399 ft | 454 kts | 255° |
| 2026-04-23 14:43 | 52.22831 | 5.10550 | 38398 ft | 455 kts | 255° |
| 2026-04-23 14:43 | 52.21546 | 5.00467 | 38403 ft | 455 kts | 255° |
| 2026-04-23 14:44 | 52.20255 | 4.90405 | 38406 ft | 455 kts | 255° |
| 2026-04-23 14:44 | 52.18954 | 4.80342 | 38410 ft | 454 kts | 255° |
| 2026-04-23 14:45 | 52.17652 | 4.70332 | 38412 ft | 453 kts | 255° |
| 2026-04-23 14:45 | 52.16333 | 4.60271 | 38418 ft | 454 kts | 254° |
| 2026-04-23 14:46 | 52.14992 | 4.50120 | 38412 ft | 455 kts | 254° |
| 2026-04-23 14:46 | 52.13696 | 4.40060 | 38422 ft | 455 kts | 256° |
| 2026-04-23 14:47 | 52.12618 | 4.29909 | 38421 ft | 455 kts | 256° |
| 2026-04-23 14:47 | 52.11608 | 4.19700 | 38420 ft | 455 kts | 257° |
| 2026-04-23 14:48 | 52.10593 | 4.09543 | 38426 ft | 454 kts | 257° |
| 2026-04-23 14:48 | 52.09563 | 3.99468 | 38365 ft | 452 kts | 256° |
| 2026-04-23 14:49 | 52.08495 | 3.89235 | 38457 ft | 460 kts | 256° |
| 2026-04-23 14:49 | 52.07427 | 3.79108 | 38432 ft | 451 kts | 256° |
| 2026-04-23 14:50 | 52.06357 | 3.69082 | 38099 ft | 451 kts | 256° |
| 2026-04-23 14:50 | 52.05821 | 3.64088 | 37654 ft | 446 kts | 256° |
| 2026-04-23 14:50 | 52.05288 | 3.59137 | 37128 ft | 442 kts | 256° |
| 2026-04-23 14:51 | 52.04760 | 3.54251 | 36578 ft | 439 kts | 256° |
| 2026-04-23 14:51 | 52.04239 | 3.49461 | 36009 ft | 436 kts | 256° |
| 2026-04-23 14:51 | 52.03706 | 3.44587 | 35395 ft | 434 kts | 256° |
| 2026-04-23 14:51 | 52.03183 | 3.39824 | 34775 ft | 434 kts | 256° |
| 2026-04-23 14:52 | 52.02651 | 3.35002 | 34165 ft | 434 kts | 255° |
| 2026-04-23 14:52 | 52.02117 | 3.30192 | 33576 ft | 433 kts | 255° |
| 2026-04-23 14:52 | 52.01588 | 3.25443 | 33129 ft | 438 kts | 255° |
| 2026-04-23 14:52 | 52.01029 | 3.20490 | 32603 ft | 452 kts | 255° |
| 2026-04-23 14:53 | 52.00467 | 3.15516 | 32055 ft | 452 kts | 255° |
| 2026-04-23 14:53 | 51.99901 | 3.10475 | 31491 ft | 448 kts | 255° |
| 2026-04-23 14:53 | 51.99350 | 3.05558 | 30937 ft | 444 kts | 255° |
| 2026-04-23 14:53 | 51.98798 | 3.00658 | 30380 ft | 440 kts | 255° |
| 2026-04-23 14:54 | 51.98249 | 2.95809 | 29821 ft | 437 kts | 255° |
| 2026-04-23 14:54 | 51.97706 | 2.91037 | 29274 ft | 433 kts | 255° |
| 2026-04-23 14:54 | 51.97160 | 2.86257 | 28723 ft | 429 kts | 255° |
| 2026-04-23 14:54 | 51.96620 | 2.81551 | 28182 ft | 426 kts | 255° |
| 2026-04-23 14:55 | 51.96083 | 2.76897 | 27638 ft | 422 kts | 256° |
| 2026-04-23 14:55 | 51.95544 | 2.72243 | 27108 ft | 418 kts | 256° |
| 2026-04-23 14:55 | 51.95012 | 2.67668 | 26575 ft | 415 kts | 256° |
| 2026-04-23 14:55 | 51.94476 | 2.63083 | 26034 ft | 411 kts | 256° |
| 2026-04-23 14:56 | 51.93948 | 2.58582 | 25515 ft | 407 kts | 256° |
| 2026-04-23 14:56 | 51.93424 | 2.54119 | 24992 ft | 404 kts | 256° |
| 2026-04-23 14:56 | 51.92904 | 2.49720 | 24485 ft | 400 kts | 256° |
| 2026-04-23 14:56 | 51.92387 | 2.45353 | 23959 ft | 397 kts | 257° |
| 2026-04-23 14:57 | 51.91871 | 2.41013 | 23459 ft | 393 kts | 257° |
| 2026-04-23 14:57 | 51.91382 | 2.36684 | 22926 ft | 390 kts | 259° |
| 2026-04-23 14:57 | 51.91070 | 2.32342 | 22481 ft | 386 kts | 264° |
| 2026-04-23 14:57 | 51.91074 | 2.28096 | 22430 ft | 377 kts | 270° |
| 2026-04-23 14:58 | 51.91270 | 2.23838 | 22438 ft | 379 kts | 273° |
| 2026-04-23 14:58 | 51.91555 | 2.19594 | 22433 ft | 381 kts | 274° |
| 2026-04-23 14:58 | 51.91877 | 2.15337 | 22287 ft | 384 kts | 275° |
| 2026-04-23 14:58 | 51.92204 | 2.11073 | 22039 ft | 379 kts | 275° |
| 2026-04-23 14:59 | 51.92517 | 2.06913 | 21783 ft | 376 kts | 275° |
| 2026-04-23 14:59 | 51.92823 | 2.02730 | 21538 ft | 375 kts | 275° |
| 2026-04-23 14:59 | 51.93119 | 1.98552 | 21293 ft | 374 kts | 275° |
| 2026-04-23 14:59 | 51.93408 | 1.94381 | 21039 ft | 373 kts | 275° |
| 2026-04-23 15:00 | 51.93690 | 1.90226 | 20795 ft | 373 kts | 275° |
| 2026-04-23 15:00 | 51.93969 | 1.86057 | 20534 ft | 370 kts | 275° |
| 2026-04-23 15:00 | 51.94241 | 1.81964 | 20279 ft | 370 kts | 275° |
| 2026-04-23 15:00 | 51.94511 | 1.77846 | 20029 ft | 368 kts | 275° |
| 2026-04-23 15:01 | 51.94778 | 1.73752 | 19782 ft | 366 kts | 275° |
| 2026-04-23 15:01 | 51.95044 | 1.69646 | 19530 ft | 365 kts | 275° |
| 2026-04-23 15:01 | 51.95305 | 1.65597 | 19277 ft | 364 kts | 275° |
| 2026-04-23 15:01 | 51.95564 | 1.61538 | 19033 ft | 363 kts | 275° |
| 2026-04-23 15:02 | 51.95738 | 1.58811 | 18844 ft | 363 kts | 275° |
| 2026-04-23 15:02 | 51.96080 | 1.53411 | 18456 ft | 359 kts | 276° |
| 2026-04-23 15:02 | 51.96328 | 1.49484 | 18058 ft | 354 kts | 276° |
| 2026-04-23 15:02 | 51.96576 | 1.45523 | 17574 ft | 352 kts | 276° |
| 2026-04-23 15:03 | 51.96820 | 1.41602 | 17105 ft | 349 kts | 276° |
| 2026-04-23 15:03 | 51.97059 | 1.37735 | 16642 ft | 347 kts | 277° |
| 2026-04-23 15:03 | 51.97299 | 1.33847 | 16160 ft | 345 kts | 276° |
| 2026-04-23 15:03 | 51.97535 | 1.30005 | 15713 ft | 343 kts | 276° |
| 2026-04-23 15:04 | 51.97769 | 1.26177 | 15222 ft | 341 kts | 277° |
| 2026-04-23 15:04 | 51.97999 | 1.22385 | 14772 ft | 340 kts | 277° |
| 2026-04-23 15:04 | 51.98227 | 1.18607 | 14294 ft | 338 kts | 277° |
| 2026-04-23 15:04 | 51.98454 | 1.14837 | 13840 ft | 336 kts | 277° |
| 2026-04-23 15:05 | 51.98679 | 1.11071 | 13362 ft | 335 kts | 277° |
| 2026-04-23 15:05 | 51.98900 | 1.07345 | 12906 ft | 333 kts | 277° |
| 2026-04-23 15:05 | 51.99118 | 1.03652 | 12448 ft | 331 kts | 277° |
| 2026-04-23 15:05 | 51.99338 | 0.99927 | 11992 ft | 330 kts | 277° |
| 2026-04-23 15:06 | 51.99552 | 0.96270 | 11539 ft | 328 kts | 277° |
| 2026-04-23 15:06 | 51.99765 | 0.92618 | 11099 ft | 326 kts | 277° |
| 2026-04-23 15:06 | 51.99976 | 0.88974 | 10660 ft | 324 kts | 277° |
| 2026-04-23 15:06 | 52.00181 | 0.85385 | 10423 ft | 315 kts | 277° |
| 2026-04-23 15:07 | 52.00377 | 0.81927 | 10291 ft | 304 kts | 277° |
| 2026-04-23 15:07 | 52.00572 | 0.78512 | 9809 ft | 306 kts | 277° |
| 2026-04-23 15:07 | 52.00765 | 0.75118 | 9415 ft | 304 kts | 277° |
| 2026-04-23 15:07 | 52.00958 | 0.71699 | 9024 ft | 302 kts | 277° |
| 2026-04-23 15:08 | 52.01146 | 0.68351 | 8761 ft | 295 kts | 277° |
| 2026-04-23 15:08 | 52.01328 | 0.65079 | 8525 ft | 289 kts | 277° |
| 2026-04-23 15:08 | 52.01502 | 0.61929 | 8406 ft | 277 kts | 277° |
| 2026-04-23 15:09 | 52.01458 | 0.55955 | 8124 ft | 259 kts | 266° |
| 2026-04-23 15:09 | 52.01291 | 0.53051 | 7828 ft | 258 kts | 265° |
| 2026-04-23 15:09 | 52.01119 | 0.50167 | 7452 ft | 261 kts | 265° |
| 2026-04-23 15:09 | 52.00954 | 0.47218 | 7048 ft | 263 kts | 266° |
| 2026-04-23 15:10 | 52.00850 | 0.45265 | 6885 ft | 260 kts | 266° |
| 2026-04-23 15:10 | 52.00658 | 0.41397 | 6549 ft | 256 kts | 266° |
| 2026-04-23 15:10 | 52.00532 | 0.38555 | 6299 ft | 253 kts | 266° |
| 2026-04-23 15:10 | 52.00413 | 0.35722 | 6056 ft | 252 kts | 267° |
| 2026-04-23 15:11 | 52.00296 | 0.32894 | 5962 ft | 249 kts | 266° |
| 2026-04-23 15:11 | 52.00179 | 0.30102 | 5969 ft | 252 kts | 265° |
| 2026-04-23 15:11 | 51.99883 | 0.27293 | 5957 ft | 252 kts | 248° |
| 2026-04-23 15:11 | 51.98921 | 0.24989 | 5971 ft | 250 kts | 221° |
| 2026-04-23 15:12 | 51.97585 | 0.23162 | 5961 ft | 250 kts | 216° |
| 2026-04-23 15:12 | 51.96247 | 0.21397 | 5960 ft | 249 kts | 218° |
| 2026-04-23 15:12 | 51.94940 | 0.19534 | 5910 ft | 247 kts | 220° |
| 2026-04-23 15:12 | 51.93696 | 0.17667 | 5632 ft | 246 kts | 221° |
| 2026-04-23 15:13 | 51.92438 | 0.15748 | 5310 ft | 247 kts | 221° |
| 2026-04-23 15:13 | 51.91192 | 0.13847 | 5016 ft | 247 kts | 221° |
| 2026-04-23 15:13 | 51.89946 | 0.11952 | 4722 ft | 247 kts | 221° |
| 2026-04-23 15:13 | 51.88702 | 0.10063 | 4434 ft | 246 kts | 221° |
| 2026-04-23 15:14 | 51.87454 | 0.08169 | 4145 ft | 246 kts | 221° |
| 2026-04-23 15:14 | 51.86209 | 0.06280 | 3877 ft | 244 kts | 221° |
| 2026-04-23 15:14 | 51.84982 | 0.04418 | 3613 ft | 243 kts | 221° |
| 2026-04-23 15:14 | 51.83759 | 0.02566 | 3336 ft | 242 kts | 221° |
| 2026-04-23 15:15 | 51.82526 | 0.00702 | 3076 ft | 239 kts | 221° |
| 2026-04-23 15:15 | 51.81224 | -0.00829 | 2939 ft | 225 kts | 199° |
| 2026-04-23 15:15 | 51.79753 | -0.01125 | 2814 ft | 207 kts | 164° |
| 2026-04-23 15:15 | 51.78567 | -0.00120 | 2701 ft | 189 kts | 130° |
| 2026-04-23 15:16 | 51.77798 | 0.01530 | 2576 ft | 178 kts | 121° |
| 2026-04-23 15:16 | 51.77122 | 0.03159 | 2459 ft | 173 kts | 121° |
| 2026-04-23 15:16 | 51.76646 | 0.04895 | 2450 ft | 170 kts | 93° |
| 2026-04-23 15:16 | 51.76937 | 0.06712 | 2452 ft | 172 kts | 54° |
| 2026-04-23 15:17 | 51.77893 | 0.07895 | 2454 ft | 177 kts | 33° |
| 2026-04-23 15:17 | 51.78863 | 0.09035 | 2445 ft | 174 kts | 45° |
| 2026-04-23 15:17 | 51.79731 | 0.10400 | 2432 ft | 173 kts | 46° |
| 2026-04-23 15:17 | 51.80611 | 0.11737 | 2233 ft | 177 kts | 45° |
| 2026-04-23 15:18 | 51.81510 | 0.13050 | 1997 ft | 175 kts | 45° |
| 2026-04-23 15:18 | 51.82399 | 0.14376 | 1761 ft | 172 kts | 44° |
| 2026-04-23 15:18 | 51.83253 | 0.15660 | 1560 ft | 160 kts | 44° |
| 2026-04-23 15:18 | 51.84038 | 0.16816 | 1351 ft | 144 kts | 46° |
| 2026-04-23 15:19 | 51.84763 | 0.17896 | 1132 ft | 140 kts | 43° |
| 2026-04-23 15:19 | 51.85471 | 0.18949 | 968 ft | 139 kts | 46° |
| 2026-04-23 15:19 | 51.86179 | 0.20033 | 781 ft | 137 kts | 45° |
| 2026-04-23 15:19 | 51.86884 | 0.21068 | 583 ft | 138 kts | 44° |
| 2026-04-23 15:20 | 51.87359 | 0.21765 | 462 ft | 139 kts | 45° |
| 2026-04-23 15:20 | 51.88274 | 0.23143 | 342 ft | 120 kts | 45° |
| 2026-04-23 15:20 | 51.88736 | 0.23839 | 335 ft | 70 kts | 43° |
| 2026-04-23 15:20 | 51.88992 | 0.24221 | 335 ft | 37 kts | 48° |
| 2026-04-23 15:21 | 51.89099 | 0.24526 | 337 ft | 30 kts | 68° |
| 2026-04-23 15:21 | 51.89161 | 0.24787 | 338 ft | 17 kts | 70° |
| 2026-04-23 15:21 | 51.89157 | 0.24936 | 338 ft | 13 kts | 72° |
| 2026-04-23 15:21 | 51.89211 | 0.25044 | 339 ft | 11 kts | 46° |
| 2026-04-23 15:22 | 51.89256 | 0.25149 | 340 ft | 11 kts | 58° |
| 2026-04-23 15:22 | 51.89303 | 0.25241 | 341 ft | 10 kts | 43° |
| 2026-04-23 15:22 | 51.89352 | 0.25316 | 342 ft | 9 kts | 44° |
| 2026-04-23 15:22 | 51.89396 | 0.25386 | 343 ft | 8 kts | 44° |
| 2026-04-23 15:23 | 51.89408 | 0.25493 | 343 ft | 13 kts | 119° |
| 2026-04-23 15:23 | 51.89338 | 0.25622 | 342 ft | 14 kts | 133° |
| 2026-04-23 15:23 | 51.89296 | 0.25694 | 342 ft | 6 kts | 134° |
| 2026-04-23 15:23 | 51.89268 | 0.25722 | 342 ft | 4 kts | 188° |
| 2026-04-23 15:24 | 51.89234 | 0.25683 | 340 ft | 2 kts | 221° |
| 2026-04-23 15:24 | 51.89220 | 0.25661 | 340 ft | 2 kts | 223° |
| 2026-04-23 15:24 | 51.89216 | 0.25655 | 339 ft | 0 kts | 223° |